createdAt,value
2018-02-07T00:00:16.694Z,0.11
2018-02-07T00:01:16.663Z,0.11
2018-02-07T00:02:16.606Z,0.18
2018-02-07T00:03:16.566Z,0.17
2018-02-07T00:04:16.519Z,0.18
2018-02-07T00:05:16.501Z,0.13
2018-02-07T00:06:16.431Z,0.20
2018-02-07T00:07:16.384Z,0.15
2018-02-07T00:08:16.331Z,0.15
2018-02-07T00:09:16.295Z,0.14
2018-02-07T00:10:16.246Z,0.03
2018-02-07T00:11:16.246Z,0.10
2018-02-07T00:12:16.153Z,0.08
2018-02-07T00:13:16.113Z,0.10
2018-02-07T00:14:16.062Z,0.00
2018-02-07T00:15:16.017Z,0.07
2018-02-07T00:16:15.975Z,0.03
2018-02-07T00:17:15.952Z,-0.01
2018-02-07T00:18:15.880Z,0.02
2018-02-07T00:19:15.836Z,0.02
2018-02-07T00:20:15.795Z,0.04
2018-02-07T00:21:15.747Z,0.03
2018-02-07T00:22:15.724Z,-0.01
2018-02-07T00:23:15.664Z,0.10
2018-02-07T00:24:15.611Z,0.10
2018-02-07T00:25:15.571Z,-0.07
2018-02-07T00:26:15.531Z,0.03
2018-02-07T00:27:15.473Z,0.03
2018-02-07T00:28:15.456Z,0.02
2018-02-07T00:29:15.388Z,-0.03
2018-02-07T00:30:15.342Z,0.00
2018-02-07T00:31:15.286Z,-0.04
2018-02-07T00:32:15.245Z,0.00
2018-02-07T00:33:15.200Z,-0.07
2018-02-07T00:34:15.186Z,-0.07
2018-02-07T00:35:15.106Z,-0.07
2018-02-07T00:36:15.060Z,-0.08
2018-02-07T00:37:15.018Z,-0.11
2018-02-07T00:38:14.972Z,-0.07
2018-02-07T00:39:14.965Z,-0.07
2018-02-07T00:40:14.886Z,-0.11
2018-02-07T00:41:14.838Z,-0.11
2018-02-07T00:42:14.793Z,-0.10
2018-02-07T00:43:14.743Z,-0.08
2018-02-07T00:44:14.700Z,-0.08
2018-02-07T00:45:14.682Z,-0.14
2018-02-07T00:46:14.606Z,-0.10
2018-02-07T00:47:14.567Z,-0.03
2018-02-07T00:48:14.514Z,-0.07
2018-02-07T00:49:14.474Z,-0.11
2018-02-07T00:50:14.430Z,-0.08
2018-02-07T00:51:14.407Z,-0.05
2018-02-07T00:52:14.338Z,-0.07
2018-02-07T00:53:14.286Z,-0.04
2018-02-07T00:54:14.247Z,-0.08
2018-02-07T00:55:14.200Z,-0.08
2018-02-07T00:56:14.186Z,0.03
2018-02-07T00:57:14.102Z,0.02
2018-02-07T00:58:14.058Z,-0.01
2018-02-07T00:59:14.015Z,-0.03
2018-02-07T01:00:13.965Z,-0.04
2018-02-07T01:01:13.927Z,-0.07
2018-02-07T01:02:13.907Z,-0.05
2018-02-07T01:03:13.834Z,0.02
2018-02-07T01:04:13.793Z,-0.01
2018-02-07T01:05:13.745Z,-0.04
2018-02-07T01:06:13.707Z,-0.05
2018-02-07T01:07:13.678Z,-0.05
2018-02-07T01:08:13.609Z,-0.08
2018-02-07T01:09:13.560Z,-0.04
2018-02-07T01:10:13.520Z,-0.03
2018-02-07T01:11:13.467Z,-0.04
2018-02-07T01:12:13.423Z,-0.03
2018-02-07T01:13:13.397Z,-0.03
2018-02-07T01:14:13.332Z,-0.03
2018-02-07T01:15:13.290Z,-0.04
2018-02-07T01:16:13.249Z,-0.07
2018-02-07T01:17:13.225Z,-0.08
2018-02-07T01:18:13.158Z,-0.07
2018-02-07T01:19:13.109Z,-0.01
2018-02-07T01:20:13.061Z,-0.07
2018-02-07T01:21:13.019Z,-0.07
2018-02-07T01:22:13.002Z,-0.01
2018-02-07T01:23:12.931Z,-0.03
2018-02-07T01:24:12.876Z,-0.01
2018-02-07T01:25:12.839Z,-0.03
2018-02-07T01:26:12.788Z,-0.08
2018-02-07T01:27:12.742Z,-0.10
2018-02-07T01:28:12.724Z,-0.08
2018-02-07T01:29:12.652Z,-0.14
2018-02-07T01:30:12.605Z,-0.16
2018-02-07T01:31:12.568Z,-0.19
2018-02-07T01:32:12.521Z,-0.14
2018-02-07T01:33:12.500Z,-0.14
2018-02-07T01:34:12.430Z,-0.18
2018-02-07T01:35:12.388Z,-0.18
2018-02-07T01:36:12.337Z,-0.16
2018-02-07T01:37:12.284Z,-0.18
2018-02-07T01:38:12.268Z,-0.19
2018-02-07T01:39:12.198Z,-0.21
2018-02-07T01:40:12.149Z,-0.21
2018-02-07T01:41:12.108Z,-0.18
2018-02-07T01:42:12.065Z,-0.16
2018-02-07T01:43:12.022Z,-0.16
2018-02-07T01:44:11.992Z,-0.19
2018-02-07T01:45:11.929Z,-0.15
2018-02-07T01:46:11.888Z,-0.15
2018-02-07T01:47:11.839Z,-0.16
2018-02-07T01:48:11.785Z,-0.16
2018-02-07T01:49:11.768Z,-0.16
2018-02-07T01:50:11.707Z,-0.15
2018-02-07T01:51:11.648Z,-0.18
2018-02-07T01:52:11.610Z,-0.18
2018-02-07T01:53:11.556Z,-0.16
2018-02-07T01:54:11.544Z,-0.21
2018-02-07T01:55:11.467Z,-0.16
2018-02-07T01:56:11.427Z,-0.21
2018-02-07T01:57:11.377Z,-0.22
2018-02-07T01:58:11.339Z,-0.18
2018-02-07T01:59:11.313Z,-0.14
2018-02-07T02:00:11.241Z,-0.22
2018-02-07T02:01:11.196Z,-0.26
2018-02-07T02:02:11.147Z,-0.26
2018-02-07T02:03:11.110Z,-0.31
2018-02-07T02:04:11.065Z,-0.23
2018-02-07T02:05:11.042Z,-0.29
2018-02-07T02:06:10.977Z,-0.31
2018-02-07T02:07:10.922Z,-0.26
2018-02-07T02:08:10.877Z,-0.28
2018-02-07T02:09:10.839Z,-0.28
2018-02-07T02:10:10.817Z,-0.26
2018-02-07T02:11:10.748Z,-0.28
2018-02-07T02:12:10.699Z,-0.26
2018-02-07T02:13:10.648Z,-0.23
2018-02-07T02:14:10.605Z,-0.25
2018-02-07T02:15:10.562Z,-0.31
2018-02-07T02:16:10.532Z,-0.26
2018-02-07T02:17:10.467Z,-0.26
2018-02-07T02:18:10.425Z,-0.25
2018-02-07T02:19:10.380Z,-0.23
2018-02-07T02:20:10.329Z,-0.18
2018-02-07T02:21:10.313Z,-0.23
2018-02-07T02:22:10.247Z,-0.23
2018-02-07T02:23:10.199Z,-0.26
2018-02-07T02:24:10.147Z,-0.29
2018-02-07T02:25:10.106Z,-0.33
2018-02-07T02:26:10.058Z,-0.23
2018-02-07T02:27:10.042Z,-0.28
2018-02-07T02:28:09.965Z,-0.34
2018-02-07T02:29:09.925Z,-0.29
2018-02-07T02:30:09.873Z,-0.26
2018-02-07T02:31:09.827Z,-0.34
2018-02-07T02:32:09.782Z,-0.33
2018-02-07T02:33:09.763Z,-0.26
2018-02-07T02:34:09.689Z,-0.26
2018-02-07T02:35:09.651Z,-0.34
2018-02-07T02:36:09.608Z,-0.22
2018-02-07T02:37:09.564Z,-0.29
2018-02-07T02:38:09.546Z,-0.28
2018-02-07T02:39:09.472Z,-0.29
2018-02-07T02:40:09.425Z,-0.26
2018-02-07T02:41:09.378Z,-0.33
2018-02-07T02:42:09.326Z,-0.31
2018-02-07T02:43:09.283Z,-0.29
2018-02-07T02:44:09.264Z,-0.31
2018-02-07T02:45:09.197Z,-0.23
2018-02-07T02:46:09.145Z,-0.28
2018-02-07T02:47:09.108Z,-0.29
2018-02-07T02:48:09.052Z,-0.25
2018-02-07T02:49:09.009Z,-0.26
2018-02-07T02:50:08.987Z,-0.28
2018-02-07T02:51:08.922Z,-0.33
2018-02-07T02:52:08.872Z,-0.36
2018-02-07T02:53:08.833Z,-0.33
2018-02-07T02:54:08.787Z,-0.37
2018-02-07T02:55:08.757Z,-0.29
2018-02-07T02:56:08.696Z,-0.40
2018-02-07T02:57:08.645Z,-0.37
2018-02-07T02:58:08.606Z,-0.31
2018-02-07T02:59:08.553Z,-0.33
2018-02-07T03:00:08.536Z,-0.42
2018-02-07T03:01:08.460Z,-0.34
2018-02-07T03:02:08.423Z,-0.31
2018-02-07T03:03:08.371Z,-0.25
2018-02-07T03:04:08.325Z,-0.37
2018-02-07T03:05:08.307Z,-0.43
2018-02-07T03:06:08.234Z,-0.28
2018-02-07T03:07:08.195Z,-0.34
2018-02-07T03:08:08.148Z,-0.33
2018-02-07T03:09:08.108Z,-0.29
2018-02-07T03:10:08.069Z,-0.29
2018-02-07T03:11:08.035Z,-0.33
2018-02-07T03:12:07.961Z,-0.29
2018-02-07T03:13:07.923Z,-0.36
2018-02-07T03:14:07.869Z,-0.34
2018-02-07T03:15:07.830Z,-0.34
2018-02-07T03:16:07.789Z,-0.29
2018-02-07T03:17:07.762Z,-0.37
2018-02-07T03:18:07.687Z,-0.31
2018-02-07T03:19:07.649Z,-0.34
2018-02-07T03:20:07.595Z,-0.21
2018-02-07T03:21:07.557Z,-0.34
2018-02-07T03:22:07.540Z,-0.26
2018-02-07T03:23:07.468Z,-0.31
2018-02-07T03:24:07.416Z,-0.25
2018-02-07T03:25:07.367Z,-0.19
2018-02-07T03:26:07.321Z,-0.26
2018-02-07T03:27:07.279Z,-0.29
2018-02-07T03:28:07.265Z,-0.34
2018-02-07T03:29:07.190Z,-0.33
2018-02-07T03:30:07.139Z,-0.39
2018-02-07T03:31:07.096Z,-0.29
2018-02-07T03:32:07.056Z,-0.40
2018-02-07T03:33:07.010Z,-0.25
2018-02-07T03:34:06.986Z,-0.31
2018-02-07T03:35:06.917Z,-0.31
2018-02-07T03:36:06.905Z,-0.29
2018-02-07T03:37:06.819Z,-0.43
2018-02-07T03:38:06.776Z,-0.39
2018-02-07T03:39:06.735Z,-0.28
2018-02-07T03:40:06.707Z,-0.39
2018-02-07T03:41:06.643Z,-0.51
2018-02-07T03:42:06.597Z,-0.37
2018-02-07T03:43:06.553Z,-0.37
2018-02-07T03:44:06.502Z,-0.37
2018-02-07T03:45:06.487Z,-0.43
2018-02-07T03:46:06.412Z,-0.34
2018-02-07T03:47:06.370Z,-0.26
2018-02-07T03:48:06.321Z,-0.29
2018-02-07T03:49:06.280Z,-0.28
2018-02-07T03:50:06.253Z,-0.40
2018-02-07T03:51:06.185Z,-0.42
2018-02-07T03:52:06.136Z,-0.29
2018-02-07T03:53:11.453Z,-0.31
2018-02-07T03:54:06.044Z,-0.40
2018-02-07T03:55:06.035Z,-0.33
2018-02-07T03:56:05.959Z,-0.44
2018-02-07T03:57:05.917Z,-0.29
2018-02-07T03:58:05.871Z,-0.36
2018-02-07T03:59:05.826Z,-0.29
2018-02-07T04:00:05.773Z,-0.31
2018-02-07T04:01:05.755Z,-0.36
2018-02-07T04:02:05.684Z,-0.25
2018-02-07T04:03:05.640Z,-0.29
2018-02-07T04:04:05.589Z,-0.37
2018-02-07T04:05:05.545Z,-0.31
2018-02-07T04:06:05.510Z,-0.37
2018-02-07T04:07:05.482Z,-0.26
2018-02-07T04:08:05.412Z,-0.34
2018-02-07T04:09:05.366Z,-0.37
2018-02-07T04:10:05.317Z,-0.36
2018-02-07T04:11:05.273Z,-0.39
2018-02-07T04:12:05.247Z,-0.43
2018-02-07T04:13:05.186Z,-0.39
2018-02-07T04:14:05.149Z,-0.47
2018-02-07T04:15:05.090Z,-0.34
2018-02-07T04:16:05.043Z,-0.39
2018-02-07T04:17:05.034Z,-0.29
2018-02-07T04:18:04.950Z,-0.34
2018-02-07T04:19:04.913Z,-0.39
2018-02-07T04:20:04.865Z,-0.37
2018-02-07T04:21:04.826Z,-0.42
2018-02-07T04:22:04.768Z,-0.33
2018-02-07T04:23:04.751Z,-0.36
2018-02-07T04:24:04.682Z,-0.40
2018-02-07T04:25:04.638Z,-0.40
2018-02-07T04:26:04.591Z,-0.42
2018-02-07T04:27:04.575Z,-0.40
2018-02-07T04:28:04.494Z,-0.34
2018-02-07T04:29:04.454Z,-0.39
2018-02-07T04:30:04.402Z,-0.39
2018-02-07T04:31:04.356Z,-0.47
2018-02-07T04:32:04.317Z,-0.37
2018-02-07T04:33:04.288Z,-0.42
2018-02-07T04:34:04.221Z,-0.43
2018-02-07T04:35:04.174Z,-0.36
2018-02-07T04:36:04.136Z,-0.31
2018-02-07T04:37:04.118Z,-0.51
2018-02-07T04:38:04.066Z,-0.34
2018-02-07T04:39:04.000Z,-0.46
2018-02-07T04:40:03.955Z,-0.36
2018-02-07T04:41:03.901Z,-0.40
2018-02-07T04:42:03.863Z,-0.34
2018-02-07T04:43:03.833Z,-0.51
2018-02-07T04:44:03.762Z,-0.34
2018-02-07T04:45:03.719Z,-0.46
2018-02-07T04:46:03.677Z,-0.46
2018-02-07T04:47:03.654Z,-0.37
2018-02-07T04:48:03.586Z,-0.43
2018-02-07T04:49:03.535Z,-0.47
2018-02-07T04:50:03.491Z,-0.40
2018-02-07T04:51:03.450Z,-0.39
2018-02-07T04:52:03.406Z,-0.54
2018-02-07T04:53:03.385Z,-0.40
2018-02-07T04:54:03.315Z,-0.40
2018-02-07T04:55:03.263Z,-0.55
2018-02-07T04:56:03.221Z,-0.54
2018-02-07T04:57:03.168Z,-0.54
2018-02-07T04:58:03.129Z,-0.65
2018-02-07T04:59:03.104Z,-0.61
2018-02-07T05:00:03.039Z,-0.58
2018-02-07T05:01:02.987Z,-0.55
2018-02-07T05:02:02.982Z,-0.57
2018-02-07T05:03:02.948Z,-0.61
2018-02-07T05:04:02.845Z,-0.58
2018-02-07T05:05:02.804Z,-0.61
2018-02-07T05:06:02.756Z,-0.60
2018-02-07T05:07:02.720Z,-0.58
2018-02-07T05:08:02.664Z,-0.67
2018-02-07T05:09:02.652Z,-0.67
2018-02-07T05:10:02.578Z,-0.69
2018-02-07T05:11:02.535Z,-0.75
2018-02-07T05:12:02.489Z,-0.72
2018-02-07T05:13:02.446Z,-0.75
2018-02-07T05:14:02.420Z,-0.82
2018-02-07T05:15:02.347Z,-0.75
2018-02-07T05:16:02.299Z,-0.82
2018-02-07T05:17:02.258Z,-0.82
2018-02-07T05:18:02.209Z,-0.80
2018-02-07T05:19:02.163Z,-0.97
2018-02-07T05:20:02.137Z,-0.92
2018-02-07T05:21:02.073Z,-0.95
2018-02-07T05:22:02.032Z,-1.01
2018-02-07T05:23:01.981Z,-1.04
2018-02-07T05:24:01.962Z,-1.01
2018-02-07T05:25:01.905Z,-0.99
2018-02-07T05:26:01.848Z,-1.07
2018-02-07T05:27:01.806Z,-0.99
2018-02-07T05:28:01.745Z,-1.10
2018-02-07T05:29:01.699Z,-1.05
2018-02-07T05:30:01.688Z,-0.98
2018-02-07T05:31:01.611Z,-1.01
2018-02-07T05:32:01.560Z,-1.01
2018-02-07T05:33:01.515Z,-1.05
2018-02-07T05:34:01.473Z,-1.12
2018-02-07T05:35:01.433Z,-1.05
2018-02-07T05:36:01.402Z,-1.19
2018-02-07T05:37:01.333Z,-1.05
2018-02-07T05:38:01.282Z,-1.10
2018-02-07T05:39:01.244Z,-1.07
2018-02-07T05:40:01.188Z,-1.15
2018-02-07T05:41:01.176Z,-1.17
2018-02-07T05:42:01.096Z,-1.17
2018-02-07T05:43:01.051Z,-1.19
2018-02-07T05:44:01.002Z,-1.16
2018-02-07T05:45:00.956Z,-1.19
2018-02-07T05:46:00.909Z,-1.17
2018-02-07T05:47:00.895Z,-1.17
2018-02-07T05:48:00.821Z,-1.23
2018-02-07T05:49:00.776Z,-1.27
2018-02-07T05:50:00.730Z,-1.31
2018-02-07T05:51:00.684Z,-1.28
2018-02-07T05:52:00.629Z,-1.45
2018-02-07T05:53:00.606Z,-1.40
2018-02-07T05:54:00.544Z,-1.37
2018-02-07T05:55:00.497Z,-1.31
2018-02-07T05:56:00.450Z,-1.48
2018-02-07T05:57:00.394Z,-1.41
2018-02-07T05:58:00.388Z,-1.46
2018-02-07T05:59:00.303Z,-1.48
2018-02-07T06:00:00.267Z,-1.41
2018-02-07T06:01:00.228Z,-1.48
2018-02-07T06:02:00.171Z,-1.52
2018-02-07T06:03:00.117Z,-1.56
2018-02-07T06:04:00.101Z,-1.55
2018-02-07T06:05:00.024Z,-1.51
2018-02-07T06:05:59.977Z,-1.55
2018-02-07T06:06:59.931Z,-1.61
2018-02-07T06:07:59.891Z,-1.56
2018-02-07T06:08:59.865Z,-1.58
2018-02-07T06:09:59.797Z,-1.69
2018-02-07T06:10:59.743Z,-1.70
2018-02-07T06:11:59.700Z,-1.52
2018-02-07T06:12:59.649Z,-1.59
2018-02-07T06:13:59.613Z,-1.55
2018-02-07T06:14:59.584Z,-1.58
2018-02-07T06:15:59.509Z,-1.58
2018-02-07T06:16:59.461Z,-1.61
2018-02-07T06:17:59.416Z,-1.54
2018-02-07T06:18:59.377Z,-1.52
2018-02-07T06:19:59.326Z,-1.58
2018-02-07T06:20:59.312Z,-1.59
2018-02-07T06:21:59.234Z,-1.70
2018-02-07T06:22:59.188Z,-1.52
2018-02-07T06:23:59.141Z,-1.62
2018-02-07T06:24:59.086Z,-1.67
2018-02-07T06:25:59.075Z,-1.74
2018-02-07T06:26:58.994Z,-1.79
2018-02-07T06:27:58.947Z,-1.61
2018-02-07T06:28:58.902Z,-1.73
2018-02-07T06:29:58.864Z,-1.77
2018-02-07T06:30:58.809Z,-1.69
2018-02-07T06:31:58.794Z,-1.74
2018-02-07T06:32:58.713Z,-1.76
2018-02-07T06:33:58.666Z,-1.74
2018-02-07T06:34:58.619Z,-1.77
2018-02-07T06:35:58.578Z,-1.72
2018-02-07T06:36:58.533Z,-1.74
2018-02-07T06:37:58.510Z,-1.74
2018-02-07T06:38:58.439Z,-1.85
2018-02-07T06:39:58.385Z,-1.88
2018-02-07T06:40:58.343Z,-1.92
2018-02-07T06:41:58.290Z,-1.82
2018-02-07T06:42:58.249Z,-1.76
2018-02-07T06:43:58.223Z,-1.77
2018-02-07T06:44:58.158Z,-1.77
2018-02-07T06:45:58.105Z,-1.88
2018-02-07T06:46:58.055Z,-1.94
2018-02-07T06:47:58.010Z,-1.91
2018-02-07T06:48:57.960Z,-1.94
2018-02-07T06:49:57.946Z,-1.91
2018-02-07T06:50:57.872Z,-1.95
2018-02-07T06:51:57.831Z,-1.92
2018-02-07T06:52:57.781Z,-1.82
2018-02-07T06:53:57.738Z,-1.87
2018-02-07T06:54:57.681Z,-1.95
2018-02-07T06:55:57.654Z,-1.95
2018-02-07T06:56:57.592Z,-1.84
2018-02-07T06:57:57.547Z,-1.77
2018-02-07T06:58:57.497Z,-1.77
2018-02-07T06:59:57.480Z,-1.77
2018-02-07T07:00:57.400Z,-1.85
2018-02-07T07:01:57.353Z,-1.76
2018-02-07T07:02:57.304Z,-1.77
2018-02-07T07:03:57.262Z,-1.87
2018-02-07T07:04:57.217Z,-1.80
2018-02-07T07:05:57.189Z,-1.91
2018-02-07T07:06:57.119Z,-1.77
2018-02-07T07:07:57.075Z,-1.80
2018-02-07T07:08:57.031Z,-1.76
2018-02-07T07:09:56.975Z,-1.77
2018-02-07T07:10:56.955Z,-1.76
2018-02-07T07:11:56.888Z,-1.74
2018-02-07T07:12:56.831Z,-1.69
2018-02-07T07:13:56.794Z,-1.74
2018-02-07T07:14:56.741Z,-1.76
2018-02-07T07:15:56.699Z,-1.67
2018-02-07T07:16:56.675Z,-1.69
2018-02-07T07:17:56.608Z,-1.59
2018-02-07T07:18:56.553Z,-1.52
2018-02-07T07:19:56.505Z,-1.61
2018-02-07T07:20:56.459Z,-1.52
2018-02-07T07:21:56.411Z,-1.51
2018-02-07T07:22:56.401Z,-1.37
2018-02-07T07:23:56.326Z,-1.01
2018-02-07T07:24:56.280Z,-0.21
2018-02-07T07:25:56.232Z,0.14
2018-02-07T07:26:56.185Z,0.15
2018-02-07T07:27:56.137Z,0.13
2018-02-07T07:28:56.109Z,0.13
2018-02-07T07:29:56.039Z,0.50
2018-02-07T07:30:55.991Z,0.55
2018-02-07T07:31:55.945Z,0.62
2018-02-07T07:32:55.903Z,0.58
2018-02-07T07:33:55.886Z,0.78
2018-02-07T07:34:55.808Z,0.66
2018-02-07T07:35:55.767Z,0.47
2018-02-07T07:36:55.721Z,0.69
2018-02-07T07:37:55.665Z,0.78
2018-02-07T07:38:55.628Z,0.65
2018-02-07T07:39:55.610Z,0.75
2018-02-07T07:40:55.541Z,0.90
2018-02-07T07:41:55.488Z,0.84
2018-02-07T07:42:55.441Z,0.73
2018-02-07T07:43:55.393Z,0.51
2018-02-07T07:44:55.348Z,0.69
2018-02-07T07:45:55.368Z,0.75
2018-02-07T07:46:55.264Z,0.68
2018-02-07T07:47:55.217Z,0.53
2018-02-07T07:48:55.163Z,0.20
2018-02-07T07:49:55.127Z,0.29
2018-02-07T07:50:55.107Z,0.46
2018-02-07T07:51:55.034Z,0.73
2018-02-07T07:52:54.989Z,0.60
2018-02-07T07:53:54.953Z,0.72
2018-02-07T07:54:54.891Z,0.62
2018-02-07T07:55:54.851Z,0.53
2018-02-07T07:56:54.828Z,0.79
2018-02-07T07:57:54.763Z,0.76
2018-02-07T07:58:54.712Z,0.55
2018-02-07T07:59:54.669Z,0.39
2018-02-07T08:00:54.627Z,0.32
2018-02-07T08:01:54.581Z,0.21
2018-02-07T08:02:54.574Z,0.03
2018-02-07T08:03:54.494Z,0.03
2018-02-07T08:04:54.438Z,-0.03
2018-02-07T08:05:54.393Z,-0.19
2018-02-07T08:06:54.354Z,-0.33
2018-02-07T08:07:54.301Z,-0.34
2018-02-07T08:08:54.283Z,-0.33
2018-02-07T08:09:54.219Z,-0.31
2018-02-07T08:10:54.175Z,-0.28
2018-02-07T08:11:54.121Z,-0.46
2018-02-07T08:12:54.080Z,-0.39
2018-02-07T08:13:54.060Z,-0.43
2018-02-07T08:14:53.988Z,-0.40
2018-02-07T08:15:53.945Z,-0.39
2018-02-07T08:16:53.908Z,-0.43
2018-02-07T08:17:53.854Z,-0.40
2018-02-07T08:18:53.848Z,-0.34
2018-02-07T08:19:53.771Z,-0.36
2018-02-07T08:20:53.722Z,-0.29
2018-02-07T08:21:53.684Z,-0.36
2018-02-07T08:22:53.628Z,-0.31
2018-02-07T08:23:53.611Z,-0.29
2018-02-07T08:24:53.539Z,-0.26
2018-02-07T08:25:53.609Z,-0.28
2018-02-07T08:26:53.484Z,-0.23
2018-02-07T08:27:53.430Z,-0.15
2018-02-07T08:28:53.365Z,-0.18
2018-02-07T08:29:53.364Z,-0.04
2018-02-07T08:30:53.275Z,0.15
2018-02-07T08:31:53.225Z,0.24
2018-02-07T08:32:53.179Z,0.41
2018-02-07T08:33:53.130Z,0.42
2018-02-07T08:34:53.117Z,0.47
2018-02-07T08:35:53.066Z,0.41
2018-02-07T08:36:53.006Z,0.46
2018-02-07T08:37:53.057Z,0.35
2018-02-07T08:38:52.910Z,0.35
2018-02-07T08:39:52.948Z,0.26
2018-02-07T08:40:52.839Z,0.26
2018-02-07T08:41:52.775Z,0.28
2018-02-07T08:42:52.733Z,0.20
2018-02-07T08:43:52.763Z,0.23
2018-02-07T08:44:52.674Z,0.23
2018-02-07T08:45:52.596Z,0.26
2018-02-07T08:46:52.559Z,0.32
2018-02-07T08:47:52.506Z,0.28
2018-02-07T08:48:52.469Z,0.26
2018-02-07T08:49:52.455Z,0.17
2018-02-07T08:50:52.384Z,0.17
2018-02-07T08:51:52.330Z,0.20
2018-02-07T08:52:52.288Z,0.08
2018-02-07T08:53:52.250Z,0.14
2018-02-07T08:54:52.221Z,0.23
2018-02-07T08:55:52.185Z,0.21
2018-02-07T08:56:52.119Z,0.14
2018-02-07T08:57:52.080Z,0.23
2018-02-07T08:58:52.032Z,0.20
2018-02-07T08:59:51.990Z,0.29
2018-02-07T09:00:51.957Z,0.26
2018-02-07T09:01:51.888Z,0.35
2018-02-07T09:02:51.851Z,0.28
2018-02-07T09:03:51.817Z,0.32
2018-02-07T09:04:51.768Z,0.26
2018-02-07T09:05:51.740Z,0.26
2018-02-07T09:06:51.672Z,0.18
2018-02-07T09:07:51.636Z,0.26
2018-02-07T09:08:51.611Z,0.23
2018-02-07T09:09:51.539Z,0.29
2018-02-07T09:10:51.486Z,0.31
2018-02-07T09:11:51.478Z,0.35
2018-02-07T09:12:51.409Z,0.35
2018-02-07T09:13:51.355Z,0.42
2018-02-07T09:14:51.323Z,0.50
2018-02-07T09:15:51.271Z,0.49
2018-02-07T09:16:51.236Z,0.49
2018-02-07T09:17:51.202Z,0.44
2018-02-07T09:18:51.150Z,0.49
2018-02-07T09:19:51.095Z,0.75
2018-02-07T09:20:51.054Z,0.80
2018-02-07T09:21:51.016Z,1.11
2018-02-07T09:22:50.982Z,1.11
2018-02-07T09:23:50.949Z,1.00
2018-02-07T09:24:50.868Z,1.02
2018-02-07T09:25:50.845Z,1.11
2018-02-07T09:26:50.802Z,1.05
2018-02-07T09:27:50.777Z,0.97
2018-02-07T09:28:50.698Z,0.88
2018-02-07T09:29:50.667Z,0.73
2018-02-07T09:30:50.623Z,0.47
2018-02-07T09:31:50.578Z,0.53
2018-02-07T09:32:50.552Z,0.47
2018-02-07T09:33:50.489Z,0.44
2018-02-07T09:34:50.439Z,0.41
2018-02-07T09:35:50.394Z,0.35
2018-02-07T09:36:50.346Z,0.31
2018-02-07T09:37:50.307Z,0.26
2018-02-07T09:38:50.295Z,0.26
2018-02-07T09:39:50.218Z,0.24
2018-02-07T09:40:50.178Z,0.17
2018-02-07T09:41:50.146Z,0.24
2018-02-07T09:42:50.114Z,0.17
2018-02-07T09:43:50.063Z,0.08
2018-02-07T09:44:50.033Z,0.08
2018-02-07T09:45:49.948Z,0.11
2018-02-07T09:46:49.912Z,0.23
2018-02-07T09:47:49.872Z,0.26
2018-02-07T09:48:49.820Z,0.51
2018-02-07T09:49:49.860Z,0.35
2018-02-07T09:50:49.757Z,0.41
2018-02-07T09:51:49.700Z,0.29
2018-02-07T09:52:49.647Z,0.24
2018-02-07T09:53:49.607Z,0.42
2018-02-07T09:54:49.595Z,0.93
2018-02-07T09:55:49.537Z,1.36
2018-02-07T09:56:49.477Z,1.66
2018-02-07T09:57:49.441Z,2.05
2018-02-07T09:58:49.406Z,2.23
2018-02-07T09:59:49.363Z,2.36
2018-02-07T10:00:49.329Z,2.63
2018-02-07T10:01:49.247Z,2.66
2018-02-07T10:02:49.210Z,2.71
2018-02-07T10:03:49.187Z,2.85
2018-02-07T10:04:49.136Z,2.78
2018-02-07T10:05:49.089Z,2.87
2018-02-07T10:06:49.070Z,2.77
2018-02-07T10:07:49.005Z,2.96
2018-02-07T10:08:48.962Z,2.99
2018-02-07T10:09:48.932Z,3.10
2018-02-07T10:10:48.880Z,3.31
2018-02-07T10:11:48.830Z,3.48
2018-02-07T10:12:48.824Z,3.47
2018-02-07T10:13:48.756Z,3.40
2018-02-07T10:14:48.709Z,3.35
2018-02-07T10:15:48.680Z,3.33
2018-02-07T10:16:48.658Z,3.48
2018-02-07T10:17:48.629Z,3.54
2018-02-07T10:18:48.556Z,3.70
2018-02-07T10:19:48.526Z,3.84
2018-02-07T10:20:48.480Z,3.93
2018-02-07T10:21:48.447Z,3.78
2018-02-07T10:22:48.431Z,3.84
2018-02-07T10:23:48.375Z,3.91
2018-02-07T10:24:48.321Z,3.88
2018-02-07T10:25:48.293Z,3.84
2018-02-07T10:26:48.248Z,3.60
2018-02-07T10:27:48.239Z,3.58
2018-02-07T10:28:48.178Z,3.60
2018-02-07T10:29:48.140Z,3.61
2018-02-07T10:30:48.098Z,3.88
2018-02-07T10:31:48.067Z,3.98
2018-02-07T10:32:48.029Z,4.18
2018-02-07T10:33:48.028Z,4.33
2018-02-07T10:34:47.959Z,4.41
2018-02-07T10:35:47.909Z,4.33
2018-02-07T10:36:47.871Z,3.90
2018-02-07T10:37:47.831Z,3.69
2018-02-07T10:38:47.798Z,3.54
2018-02-07T10:39:47.785Z,3.50
2018-02-07T10:40:47.725Z,3.40
2018-02-07T10:41:47.683Z,3.45
2018-02-07T10:42:47.653Z,3.57
2018-02-07T10:43:47.634Z,3.55
2018-02-07T10:44:47.576Z,3.80
2018-02-07T10:45:47.564Z,3.94
2018-02-07T10:46:47.513Z,3.40
2018-02-07T10:47:47.455Z,3.42
2018-02-07T10:48:47.428Z,3.47
2018-02-07T10:49:47.413Z,3.62
2018-02-07T10:50:47.385Z,3.73
2018-02-07T10:51:47.307Z,4.02
2018-02-07T10:52:47.276Z,4.26
2018-02-07T10:53:47.243Z,4.52
2018-02-07T10:54:47.200Z,4.45
2018-02-07T10:55:47.168Z,4.51
2018-02-07T10:56:47.153Z,4.62
2018-02-07T10:57:47.082Z,4.29
2018-02-07T10:58:47.045Z,4.12
2018-02-07T10:59:47.008Z,3.80
2018-02-07T11:00:46.970Z,3.91
2018-02-07T11:01:46.928Z,3.96
2018-02-07T11:02:46.930Z,4.18
2018-02-07T11:03:46.861Z,4.34
2018-02-07T11:04:46.820Z,4.59
2018-02-07T11:05:46.780Z,4.59
2018-02-07T11:06:46.741Z,4.29
2018-02-07T11:07:46.731Z,4.06
2018-02-07T11:08:46.676Z,4.09
2018-02-07T11:09:46.643Z,4.14
2018-02-07T11:10:46.600Z,4.69
2018-02-07T11:11:46.559Z,4.92
2018-02-07T11:12:46.555Z,5.17
2018-02-07T11:13:46.482Z,5.43
2018-02-07T11:14:46.453Z,5.46
2018-02-07T11:15:46.405Z,5.38
2018-02-07T11:16:46.369Z,5.60
2018-02-07T11:17:46.330Z,5.58
2018-02-07T11:18:46.330Z,6.00
2018-02-07T11:19:46.262Z,6.04
2018-02-07T11:20:46.228Z,6.04
2018-02-07T11:21:46.192Z,5.33
2018-02-07T11:22:46.148Z,4.82
2018-02-07T11:23:46.112Z,4.78
2018-02-07T11:24:46.097Z,4.80
2018-02-07T11:25:46.045Z,4.97
2018-02-07T11:26:46.001Z,5.00
2018-02-07T11:27:45.972Z,5.22
2018-02-07T11:28:45.936Z,5.30
2018-02-07T11:29:45.921Z,5.38
2018-02-07T11:30:45.855Z,5.28
2018-02-07T11:31:45.829Z,4.89
2018-02-07T11:32:45.793Z,4.72
2018-02-07T11:33:45.746Z,4.60
2018-02-07T11:34:45.723Z,4.78
2018-02-07T11:35:45.706Z,4.82
2018-02-07T11:36:45.635Z,4.99
2018-02-07T11:37:45.599Z,5.18
2018-02-07T11:38:45.561Z,5.45
2018-02-07T11:39:45.525Z,5.48
2018-02-07T11:40:45.493Z,5.49
2018-02-07T11:41:45.483Z,5.49
2018-02-07T11:42:45.416Z,5.68
2018-02-07T11:43:45.383Z,5.89
2018-02-07T11:44:45.343Z,6.31
2018-02-07T11:45:45.310Z,6.61
2018-02-07T11:46:45.271Z,6.99
2018-02-07T11:47:45.263Z,6.46
2018-02-07T11:48:45.197Z,6.17
2018-02-07T11:49:45.172Z,5.76
2018-02-07T11:50:45.126Z,5.58
2018-02-07T11:51:45.086Z,6.00
2018-02-07T11:52:45.078Z,6.30
2018-02-07T11:53:45.014Z,6.48
2018-02-07T11:54:44.986Z,6.33
2018-02-07T11:55:44.949Z,6.25
2018-02-07T11:56:44.916Z,6.43
2018-02-07T11:57:44.881Z,6.51
2018-02-07T11:58:44.875Z,6.46
2018-02-07T11:59:44.802Z,6.31
2018-02-07T12:00:44.772Z,6.51
2018-02-07T12:01:44.728Z,6.64
2018-02-07T12:02:44.702Z,6.59
2018-02-07T12:03:44.658Z,6.44
2018-02-07T12:04:44.655Z,6.36
2018-02-07T12:05:44.590Z,5.51
2018-02-07T12:06:44.552Z,5.89
2018-02-07T12:07:44.514Z,5.51
2018-02-07T12:08:44.485Z,5.54
2018-02-07T12:09:44.479Z,5.82
2018-02-07T12:10:44.414Z,5.63
2018-02-07T12:11:44.379Z,5.75
2018-02-07T12:12:44.335Z,5.96
2018-02-07T12:13:44.300Z,5.97
2018-02-07T12:14:44.263Z,6.01
2018-02-07T12:15:44.261Z,6.28
2018-02-07T12:16:44.194Z,6.31
2018-02-07T12:17:44.154Z,6.01
2018-02-07T12:18:44.119Z,5.51
2018-02-07T12:19:44.090Z,5.48
2018-02-07T12:20:44.053Z,5.72
2018-02-07T12:21:44.042Z,5.53
2018-02-07T12:22:43.983Z,5.57
2018-02-07T12:23:43.945Z,5.76
2018-02-07T12:24:43.900Z,5.93
2018-02-07T12:25:43.869Z,5.78
2018-02-07T12:26:43.827Z,5.72
2018-02-07T12:27:43.814Z,4.82
2018-02-07T12:28:43.753Z,4.72
2018-02-07T12:29:43.723Z,4.96
2018-02-07T12:30:43.684Z,5.09
2018-02-07T12:31:43.680Z,5.17
2018-02-07T12:32:43.612Z,5.38
2018-02-07T12:33:43.570Z,5.56
2018-02-07T12:34:43.533Z,5.79
2018-02-07T12:35:43.504Z,5.56
2018-02-07T12:36:43.464Z,5.71
2018-02-07T12:37:43.453Z,5.49
2018-02-07T12:38:43.384Z,5.63
2018-02-07T12:39:43.345Z,5.54
2018-02-07T12:40:43.315Z,5.13
2018-02-07T12:41:43.280Z,5.06
2018-02-07T12:42:43.241Z,5.07
2018-02-07T12:43:43.234Z,5.07
2018-02-07T12:44:43.162Z,5.18
2018-02-07T12:45:43.130Z,4.97
2018-02-07T12:46:43.094Z,4.70
2018-02-07T12:47:43.052Z,4.65
2018-02-07T12:48:43.012Z,4.70
2018-02-07T12:49:42.998Z,4.78
2018-02-07T12:50:42.946Z,4.84
2018-02-07T12:51:42.904Z,4.92
2018-02-07T12:52:42.872Z,4.84
2018-02-07T12:53:42.833Z,4.69
2018-02-07T12:54:42.818Z,3.97
2018-02-07T12:55:42.754Z,3.72
2018-02-07T12:56:42.723Z,3.55
2018-02-07T12:57:42.685Z,3.45
2018-02-07T12:58:42.659Z,3.43
2018-02-07T12:59:42.684Z,3.36
2018-02-07T13:00:42.563Z,3.42
2018-02-07T13:01:42.533Z,3.42
2018-02-07T13:02:42.555Z,3.48